sensor_id;sensor_type;location;lat;lon;timestamp;pressure;altitude;pressure_sealevel;temperature;humidity
3102;BME280;1561;42.666;23.392;2023-08-08T00:00:14;95052.19;;;16.44;100.00
3102;BME280;1561;42.666;23.392;2023-08-08T00:02:45;95065.72;;;16.38;100.00
3102;BME280;1561;42.666;23.392;2023-08-08T00:05:12;95068.34;;;16.55;100.00
3102;BME280;1561;42.666;23.392;2023-08-08T00:07:39;95038.03;;;16.48;100.00
3102;BME280;1561;42.666;23.392;2023-08-08T00:10:07;95063.50;;;16.52;100.00
3102;BME280;1561;42.666;23.392;2023-08-08T00:12:36;95071.38;;;16.50;100.00
3102;BME280;1561;42.666;23.392;2023-08-08T00:15:04;95071.22;;;16.43;100.00
3102;BME280;1561;42.666;23.392;2023-08-08T00:17:32;95068.81;;;16.50;100.00
3102;BME280;1561;42.666;23.392;2023-08-08T00:20:11;95052.19;;;16.44;100.00
3102;BME280;1561;42.666;23.392;2023-08-08T00:22:43;95065.09;;;16.28;100.00
3102;BME280;1561;42.666;23.392;2023-08-08T00:25:13;95059.94;;;16.44;100.00
3102;BME280;1561;42.666;23.392;2023-08-08T00:27:40;95066.53;;;16.47;100.00
3102;BME280;1561;42.666;23.392;2023-08-08T00:30:12;95067.19;;;16.57;100.00
3102;BME280;1561;42.666;23.392;2023-08-08T00:32:41;95054.94;;;16.27;100.00
3102;BME280;1561;42.666;23.392;2023-08-08T00:35:11;95076.53;;;16.42;100.00
3102;BME280;1561;42.666;23.392;2023-08-08T00:37:38;95072.00;;;16.36;100.00
3102;BME280;1561;42.666;23.392;2023-08-08T00:40:12;95078.31;;;16.49;100.00
3102;BME280;1561;42.666;23.392;2023-08-08T00:42:42;95079.13;;;16.66;100.00
3102;BME280;1561;42.666;23.392;2023-08-08T00:45:09;95085.06;;;16.67;100.00
3102;BME280;1561;42.666;23.392;2023-08-08T00:47:37;95079.59;;;16.70;100.00
3102;BME280;1561;42.666;23.392;2023-08-08T00:50:05;95079.25;;;16.73;100.00
3102;BME280;1561;42.666;23.392;2023-08-08T00:52:38;95090.03;;;16.84;100.00
3102;BME280;1561;42.666;23.392;2023-08-08T00:55:07;95080.84;;;16.90;100.00
3102;BME280;1561;42.666;23.392;2023-08-08T00:57:37;95089.88;;;16.86;100.00
3102;BME280;1561;42.666;23.392;2023-08-08T01:00:12;95093.28;;;16.70;100.00
3102;BME280;1561;42.666;23.392;2023-08-08T01:02:42;95090.88;;;16.61;100.00
3102;BME280;1561;42.666;23.392;2023-08-08T01:05:10;95083.44;;;16.74;100.00
3102;BME280;1561;42.666;23.392;2023-08-08T01:07:47;95072.84;;;16.52;100.00
3102;BME280;1561;42.666;23.392;2023-08-08T01:10:23;95096.19;;;16.67;100.00
3102;BME280;1561;42.666;23.392;2023-08-08T01:13:01;95087.16;;;16.79;100.00
3102;BME280;1561;42.666;23.392;2023-08-08T01:15:29;95064.63;;;16.49;100.00
3102;BME280;1561;42.666;23.392;2023-08-08T01:18:01;95088.47;;;16.59;100.00
3102;BME280;1561;42.666;23.392;2023-08-08T01:20:29;95088.94;;;16.38;100.00
3102;BME280;1561;42.666;23.392;2023-08-08T01:23:09;95099.13;;;16.40;100.00
3102;BME280;1561;42.666;23.392;2023-08-08T01:25:42;95085.56;;;16.22;100.00
3102;BME280;1561;42.666;23.392;2023-08-08T01:28:14;95093.66;;;16.43;100.00
3102;BME280;1561;42.666;23.392;2023-08-08T01:30:43;95099.25;;;16.38;100.00
3102;BME280;1561;42.666;23.392;2023-08-08T01:33:10;95096.84;;;16.21;100.00
3102;BME280;1561;42.666;23.392;2023-08-08T01:35:45;95104.38;;;16.22;100.00
3102;BME280;1561;42.666;23.392;2023-08-08T01:38:19;95108.59;;;16.39;100.00
3102;BME280;1561;42.666;23.392;2023-08-08T01:40:48;95052.84;;;16.14;100.00
3102;BME280;1561;42.666;23.392;2023-08-08T01:43:17;95103.00;;;16.52;100.00
3102;BME280;1561;42.666;23.392;2023-08-08T01:45:46;95119.25;;;16.52;100.00
3102;BME280;1561;42.666;23.392;2023-08-08T01:48:14;95130.53;;;16.60;100.00
3102;BME280;1561;42.666;23.392;2023-08-08T01:50:43;95071.69;;;15.99;100.00
3102;BME280;1561;42.666;23.392;2023-08-08T01:53:12;95126.50;;;16.49;100.00
3102;BME280;1561;42.666;23.392;2023-08-08T01:55:42;95140.81;;;16.27;100.00
3102;BME280;1561;42.666;23.392;2023-08-08T01:58:16;95139.97;;;16.11;100.00
3102;BME280;1561;42.666;23.392;2023-08-08T02:00:44;95094.19;;;15.73;100.00
3102;BME280;1561;42.666;23.392;2023-08-08T02:03:12;95080.13;;;15.59;100.00
3102;BME280;1561;42.666;23.392;2023-08-08T02:05:46;95148.72;;;16.26;100.00
3102;BME280;1561;42.666;23.392;2023-08-08T02:08:23;95149.00;;;15.99;100.00
3102;BME280;1561;42.666;23.392;2023-08-08T02:10:53;95162.19;;;16.04;100.00
3102;BME280;1561;42.666;23.392;2023-08-08T02:13:23;95160.41;;;16.04;100.00
3102;BME280;1561;42.666;23.392;2023-08-08T02:15:50;95155.28;;;16.12;100.00
3102;BME280;1561;42.666;23.392;2023-08-08T02:18:20;95155.28;;;16.12;100.00
3102;BME280;1561;42.666;23.392;2023-08-08T02:20:52;95147.84;;;15.93;100.00
3102;BME280;1561;42.666;23.392;2023-08-08T02:23:19;95100.69;;;15.51;100.00
3102;BME280;1561;42.666;23.392;2023-08-08T02:25:52;95163.28;;;15.85;100.00
3102;BME280;1561;42.666;23.392;2023-08-08T02:28:21;95175.75;;;16.14;100.00
3102;BME280;1561;42.666;23.392;2023-08-08T02:30:50;95180.41;;;16.10;100.00
3102;BME280;1561;42.666;23.392;2023-08-08T02:33:27;95187.81;;;16.05;100.00
3102;BME280;1561;42.666;23.392;2023-08-08T02:35:55;95170.13;;;16.34;100.00
3102;BME280;1561;42.666;23.392;2023-08-08T02:38:22;95176.91;;;16.27;100.00
3102;BME280;1561;42.666;23.392;2023-08-08T02:40:51;95170.91;;;16.19;100.00
3102;BME280;1561;42.666;23.392;2023-08-08T02:43:19;95179.59;;;16.10;100.00
3102;BME280;1561;42.666;23.392;2023-08-08T02:45:51;95125.13;;;15.89;100.00
3102;BME280;1561;42.666;23.392;2023-08-08T02:48:18;95180.84;;;15.98;100.00
3102;BME280;1561;42.666;23.392;2023-08-08T02:50:46;95190.53;;;16.12;100.00
3102;BME280;1561;42.666;23.392;2023-08-08T02:53:13;95211.09;;;16.37;100.00
3102;BME280;1561;42.666;23.392;2023-08-08T02:55:40;95186.50;;;16.09;100.00
3102;BME280;1561;42.666;23.392;2023-08-08T02:58:08;95204.19;;;15.96;100.00
3102;BME280;1561;42.666;23.392;2023-08-08T03:00:37;95202.78;;;16.02;100.00
3102;BME280;1561;42.666;23.392;2023-08-08T03:03:09;95210.66;;;15.92;100.00
3102;BME280;1561;42.666;23.392;2023-08-08T03:05:36;95222.78;;;16.16;100.00
3102;BME280;1561;42.666;23.392;2023-08-08T03:08:06;95209.06;;;16.07;100.00
3102;BME280;1561;42.666;23.392;2023-08-08T03:10:33;95208.91;;;16.09;100.00
3102;BME280;1561;42.666;23.392;2023-08-08T03:13:04;95198.63;;;16.09;100.00
3102;BME280;1561;42.666;23.392;2023-08-08T03:15:32;95207.50;;;16.22;100.00
3102;BME280;1561;42.666;23.392;2023-08-08T03:18:03;95198.78;;;16.15;100.00
3102;BME280;1561;42.666;23.392;2023-08-08T03:20:46;95201.56;;;16.30;100.00
3102;BME280;1561;42.666;23.392;2023-08-08T03:23:18;95180.56;;;16.09;100.00
3102;BME280;1561;42.666;23.392;2023-08-08T03:25:50;95202.16;;;16.08;100.00
3102;BME280;1561;42.666;23.392;2023-08-08T03:28:22;95220.09;;;16.33;100.00
3102;BME280;1561;42.666;23.392;2023-08-08T03:30:50;95221.66;;;16.18;100.00
3102;BME280;1561;42.666;23.392;2023-08-08T03:33:21;95203.91;;;16.07;100.00
3102;BME280;1561;42.666;23.392;2023-08-08T03:35:54;95198.91;;;16.06;100.00
3102;BME280;1561;42.666;23.392;2023-08-08T03:38:27;95226.13;;;16.08;100.00
3102;BME280;1561;42.666;23.392;2023-08-08T03:40:56;95160.94;;;15.58;100.00
3102;BME280;1561;42.666;23.392;2023-08-08T03:43:26;95223.69;;;15.91;100.00
3102;BME280;1561;42.666;23.392;2023-08-08T03:45:54;95218.53;;;15.91;100.00
3102;BME280;1561;42.666;23.392;2023-08-08T03:48:22;95225.31;;;16.00;100.00
3102;BME280;1561;42.666;23.392;2023-08-08T03:50:55;95219.88;;;16.11;100.00
3102;BME280;1561;42.666;23.392;2023-08-08T03:53:26;95214.03;;;16.01;100.00
3102;BME280;1561;42.666;23.392;2023-08-08T03:55:57;95223.78;;;16.23;100.00
3102;BME280;1561;42.666;23.392;2023-08-08T03:58:29;95222.38;;;16.36;100.00
3102;BME280;1561;42.666;23.392;2023-08-08T04:00:57;95218.16;;;16.27;100.00
3102;BME280;1561;42.666;23.392;2023-08-08T04:03:26;95159.41;;;15.81;100.00
3102;BME280;1561;42.666;23.392;2023-08-08T04:05:56;95223.94;;;16.29;100.00
3102;BME280;1561;42.666;23.392;2023-08-08T04:08:24;95225.50;;;16.06;100.00
3102;BME280;1561;42.666;23.392;2023-08-08T04:10:53;95241.47;;;16.18;100.00
3102;BME280;1561;42.666;23.392;2023-08-08T04:13:23;95244.84;;;16.10;100.00
3102;BME280;1561;42.666;23.392;2023-08-08T04:15:52;95254.88;;;16.29;100.00
3102;BME280;1561;42.666;23.392;2023-08-08T04:18:19;95245.41;;;15.88;100.00
3102;BME280;1561;42.666;23.392;2023-08-08T04:20:50;95179.72;;;15.51;100.00
3102;BME280;1561;42.666;23.392;2023-08-08T04:23:23;95254.16;;;16.03;100.00
3102;BME280;1561;42.666;23.392;2023-08-08T04:26:00;95271.56;;;16.09;100.00
3102;BME280;1561;42.666;23.392;2023-08-08T04:28:30;95265.88;;;15.98;100.00
3102;BME280;1561;42.666;23.392;2023-08-08T04:30:58;95260.88;;;15.88;100.00
3102;BME280;1561;42.666;23.392;2023-08-08T04:33:30;95275.09;;;16.08;100.00
3102;BME280;1561;42.666;23.392;2023-08-08T04:35:58;95262.38;;;15.99;100.00
3102;BME280;1561;42.666;23.392;2023-08-08T04:38:32;95282.69;;;16.10;100.00
3102;BME280;1561;42.666;23.392;2023-08-08T04:41:01;95268.19;;;16.09;100.00
3102;BME280;1561;42.666;23.392;2023-08-08T04:43:33;95289.41;;;16.36;100.00
3102;BME280;1561;42.666;23.392;2023-08-08T04:46:00;95252.91;;;16.15;100.00
3102;BME280;1561;42.666;23.392;2023-08-08T04:48:29;95282.69;;;16.52;100.00
3102;BME280;1561;42.666;23.392;2023-08-08T04:51:04;95278.22;;;16.70;100.00
3102;BME280;1561;42.666;23.392;2023-08-08T04:53:35;95281.00;;;17.48;100.00
3102;BME280;1561;42.666;23.392;2023-08-08T04:56:03;95268.78;;;18.66;100.00
3102;BME280;1561;42.666;23.392;2023-08-08T04:58:31;95264.06;;;18.39;100.00
3102;BME280;1561;42.666;23.392;2023-08-08T05:00:58;95224.19;;;17.24;100.00
3102;BME280;1561;42.666;23.392;2023-08-08T05:03:27;95261.94;;;17.33;100.00
3102;BME280;1561;42.666;23.392;2023-08-08T05:05:57;95286.47;;;17.37;100.00
3102;BME280;1561;42.666;23.392;2023-08-08T05:08:31;95300.03;;;17.15;100.00
3102;BME280;1561;42.666;23.392;2023-08-08T05:11:05;95306.50;;;17.43;100.00
3102;BME280;1561;42.666;23.392;2023-08-08T05:13:32;95294.97;;;19.16;100.00
3102;BME280;1561;42.666;23.392;2023-08-08T05:16:01;95282.69;;;20.56;100.00
3102;BME280;1561;42.666;23.392;2023-08-08T05:18:29;95255.97;;;19.98;100.00
3102;BME280;1561;42.666;23.392;2023-08-08T05:21:01;95312.03;;;21.07;100.00
3102;BME280;1561;42.666;23.392;2023-08-08T05:23:34;95312.06;;;20.57;100.00
3102;BME280;1561;42.666;23.392;2023-08-08T05:26:03;95337.72;;;20.66;100.00
3102;BME280;1561;42.666;23.392;2023-08-08T05:28:38;95298.66;;;21.31;100.00
3102;BME280;1561;42.666;23.392;2023-08-08T05:31:06;95305.16;;;19.91;100.00
3102;BME280;1561;42.666;23.392;2023-08-08T05:33:33;95347.50;;;18.33;100.00
3102;BME280;1561;42.666;23.392;2023-08-08T05:36:05;95335.81;;;19.36;100.00
3102;BME280;1561;42.666;23.392;2023-08-08T05:38:32;95297.84;;;19.43;100.00
3102;BME280;1561;42.666;23.392;2023-08-08T05:41:00;95341.06;;;21.73;100.00
3102;BME280;1561;42.666;23.392;2023-08-08T05:43:36;95344.66;;;22.68;100.00
3102;BME280;1561;42.666;23.392;2023-08-08T05:46:06;95316.22;;;23.79;96.64
3102;BME280;1561;42.666;23.392;2023-08-08T05:48:34;95165.03;;;21.53;100.00
3102;BME280;1561;42.666;23.392;2023-08-08T05:51:01;95358.91;;;23.32;100.00
3102;BME280;1561;42.666;23.392;2023-08-08T05:53:31;95342.31;;;23.66;98.55
3102;BME280;1561;42.666;23.392;2023-08-08T05:56:01;95323.31;;;22.98;97.12
3102;BME280;1561;42.666;23.392;2023-08-08T05:58:31;95337.19;;;19.98;100.00
3102;BME280;1561;42.666;23.392;2023-08-08T06:01:03;95370.50;;;21.17;100.00
3102;BME280;1561;42.666;23.392;2023-08-08T06:03:47;95352.09;;;21.61;100.00
3102;BME280;1561;42.666;23.392;2023-08-08T06:06:17;95360.53;;;22.73;100.00
3102;BME280;1561;42.666;23.392;2023-08-08T06:08:54;95371.94;;;22.78;98.93
3102;BME280;1561;42.666;23.392;2023-08-08T06:11:28;95356.53;;;24.35;84.21
3102;BME280;1561;42.666;23.392;2023-08-08T06:14:01;95367.19;;;24.33;83.18
3102;BME280;1561;42.666;23.392;2023-08-08T06:16:34;95370.97;;;24.44;81.63
3102;BME280;1561;42.666;23.392;2023-08-08T06:19:01;95368.16;;;22.13;100.00
3102;BME280;1561;42.666;23.392;2023-08-08T06:21:28;95375.22;;;22.53;100.00
3102;BME280;1561;42.666;23.392;2023-08-08T06:23:55;95371.06;;;22.31;100.00
3102;BME280;1561;42.666;23.392;2023-08-08T06:26:29;95365.16;;;23.38;90.38
3102;BME280;1561;42.666;23.392;2023-08-08T06:29:14;95359.59;;;22.93;99.59
3102;BME280;1561;42.666;23.392;2023-08-08T06:31:47;95363.94;;;24.44;82.99
3102;BME280;1561;42.666;23.392;2023-08-08T06:34:15;95365.38;;;25.72;72.59
3102;BME280;1561;42.666;23.392;2023-08-08T06:36:49;95333.41;;;23.14;85.66
3102;BME280;1561;42.666;23.392;2023-08-08T06:39:27;95334.69;;;24.86;75.91
3102;BME280;1561;42.666;23.392;2023-08-08T06:42:06;95368.91;;;24.72;73.28
3102;BME280;1561;42.666;23.392;2023-08-08T06:44:54;95373.47;;;23.13;80.84
3102;BME280;1561;42.666;23.392;2023-08-08T06:47:29;95376.81;;;24.33;74.90
3102;BME280;1561;42.666;23.392;2023-08-08T06:50:06;95241.13;;;24.00;70.34
3102;BME280;1561;42.666;23.392;2023-08-08T06:52:49;95371.81;;;23.73;79.92
3102;BME280;1561;42.666;23.392;2023-08-08T06:55:19;95376.88;;;21.78;100.00
3102;BME280;1561;42.666;23.392;2023-08-08T06:57:47;95372.56;;;24.64;79.48
3102;BME280;1561;42.666;23.392;2023-08-08T07:00:17;95364.16;;;23.52;85.28
3102;BME280;1561;42.666;23.392;2023-08-08T07:02:51;95371.59;;;21.50;100.00
3102;BME280;1561;42.666;23.392;2023-08-08T07:05:23;95369.41;;;24.23;75.66
3102;BME280;1561;42.666;23.392;2023-08-08T07:07:52;95380.66;;;20.83;99.18
3102;BME280;1561;42.666;23.392;2023-08-08T07:10:22;95383.22;;;20.48;100.00
3102;BME280;1561;42.666;23.392;2023-08-08T07:12:50;95389.91;;;19.76;100.00
3102;BME280;1561;42.666;23.392;2023-08-08T07:15:29;95298.84;;;22.93;79.29
3102;BME280;1561;42.666;23.392;2023-08-08T07:17:59;95369.81;;;23.88;68.33
3102;BME280;1561;42.666;23.392;2023-08-08T07:20:45;95344.59;;;23.08;71.12
3102;BME280;1561;42.666;23.392;2023-08-08T07:23:20;95362.16;;;23.73;66.70
3102;BME280;1561;42.666;23.392;2023-08-08T07:25:48;95349.00;;;23.01;72.36
3102;BME280;1561;42.666;23.392;2023-08-08T07:28:31;95356.84;;;23.08;71.39
3102;BME280;1561;42.666;23.392;2023-08-08T07:31:19;95375.03;;;22.27;73.68
3102;BME280;1561;42.666;23.392;2023-08-08T07:33:50;95381.66;;;24.23;60.84
3102;BME280;1561;42.666;23.392;2023-08-08T07:36:29;95342.47;;;25.92;56.92
3102;BME280;1561;42.666;23.392;2023-08-08T07:38:57;95377.22;;;23.52;64.31
3102;BME280;1561;42.666;23.392;2023-08-08T07:41:29;95345.25;;;22.63;70.81
3102;BME280;1561;42.666;23.392;2023-08-08T07:44:15;95382.59;;;22.83;69.30
3102;BME280;1561;42.666;23.392;2023-08-08T07:46:56;95385.75;;;22.45;71.55
3102;BME280;1561;42.666;23.392;2023-08-08T07:49:34;95353.75;;;24.93;59.08
3102;BME280;1561;42.666;23.392;2023-08-08T07:52:04;95376.44;;;24.16;57.96
3102;BME280;1561;42.666;23.392;2023-08-08T07:54:58;95350.53;;;24.08;58.84
3102;BME280;1561;42.666;23.392;2023-08-08T07:57:29;95378.16;;;25.18;52.58
3102;BME280;1561;42.666;23.392;2023-08-08T08:00:07;95376.56;;;25.17;53.87
3102;BME280;1561;42.666;23.392;2023-08-08T08:02:45;95379.97;;;23.37;60.80
3102;BME280;1561;42.666;23.392;2023-08-08T08:05:24;95368.91;;;22.68;65.20
3102;BME280;1561;42.666;23.392;2023-08-08T08:08:02;95364.38;;;22.96;63.37
3102;BME280;1561;42.666;23.392;2023-08-08T08:10:44;95363.78;;;24.00;56.64
3102;BME280;1561;42.666;23.392;2023-08-08T08:13:33;95371.81;;;25.45;52.13
3102;BME280;1561;42.666;23.392;2023-08-08T08:16:07;95375.03;;;26.27;49.46
3102;BME280;1561;42.666;23.392;2023-08-08T08:18:49;95370.66;;;24.84;55.11
3102;BME280;1561;42.666;23.392;2023-08-08T08:21:25;95374.53;;;25.57;52.23
3102;BME280;1561;42.666;23.392;2023-08-08T08:24:00;95346.47;;;24.38;54.91
3102;BME280;1561;42.666;23.392;2023-08-08T08:26:46;95364.94;;;24.43;55.08
3102;BME280;1561;42.666;23.392;2023-08-08T08:29:17;95356.97;;;25.39;53.86
3102;BME280;1561;42.666;23.392;2023-08-08T08:31:53;95306.59;;;25.44;50.90
3102;BME280;1561;42.666;23.392;2023-08-08T08:34:25;95334.66;;;23.51;58.34
3102;BME280;1561;42.666;23.392;2023-08-08T08:36:57;95357.97;;;25.38;52.38
3102;BME280;1561;42.666;23.392;2023-08-08T08:39:33;95363.44;;;26.17;48.88
3102;BME280;1561;42.666;23.392;2023-08-08T08:42:02;95373.13;;;24.73;53.43
3102;BME280;1561;42.666;23.392;2023-08-08T08:44:32;95367.31;;;24.58;54.33
3102;BME280;1561;42.666;23.392;2023-08-08T08:47:04;95369.94;;;26.32;49.35
3102;BME280;1561;42.666;23.392;2023-08-08T08:49:38;95370.66;;;25.66;50.93
3102;BME280;1561;42.666;23.392;2023-08-08T08:52:08;95367.28;;;24.77;53.68
3102;BME280;1561;42.666;23.392;2023-08-08T08:54:35;95365.31;;;24.60;53.93
3102;BME280;1561;42.666;23.392;2023-08-08T08:57:02;95374.72;;;22.09;68.57
3102;BME280;1561;42.666;23.392;2023-08-08T08:59:31;95325.84;;;23.65;59.55
3102;BME280;1561;42.666;23.392;2023-08-08T09:02:06;95341.75;;;26.28;50.48
3102;BME280;1561;42.666;23.392;2023-08-08T09:04:58;95363.47;;;26.53;48.00
3102;BME280;1561;42.666;23.392;2023-08-08T09:07:32;95360.13;;;28.92;44.04
3102;BME280;1561;42.666;23.392;2023-08-08T09:10:01;95341.84;;;27.41;44.97
3102;BME280;1561;42.666;23.392;2023-08-08T09:12:30;95360.69;;;25.81;49.41
3102;BME280;1561;42.666;23.392;2023-08-08T09:15:03;95368.41;;;25.76;49.60
3102;BME280;1561;42.666;23.392;2023-08-08T09:17:32;95356.28;;;26.30;48.80
3102;BME280;1561;42.666;23.392;2023-08-08T09:20:03;95362.13;;;25.77;50.11
3102;BME280;1561;42.666;23.392;2023-08-08T09:22:31;95367.50;;;24.76;52.83
3102;BME280;1561;42.666;23.392;2023-08-08T09:25:08;95364.41;;;25.98;48.47
3102;BME280;1561;42.666;23.392;2023-08-08T09:27:38;95352.38;;;24.14;54.08
3102;BME280;1561;42.666;23.392;2023-08-08T09:30:09;95348.72;;;25.91;51.11
3102;BME280;1561;42.666;23.392;2023-08-08T09:32:37;95352.63;;;26.49;48.45
3102;BME280;1561;42.666;23.392;2023-08-08T09:35:24;95365.47;;;27.41;46.83
3102;BME280;1561;42.666;23.392;2023-08-08T09:37:53;95360.50;;;25.82;50.46
3102;BME280;1561;42.666;23.392;2023-08-08T09:40:36;95363.25;;;25.63;50.52
3102;BME280;1561;42.666;23.392;2023-08-08T09:43:07;95363.34;;;25.06;51.15
3102;BME280;1561;42.666;23.392;2023-08-08T09:45:47;95361.03;;;25.29;51.85
3102;BME280;1561;42.666;23.392;2023-08-08T09:48:23;95369.28;;;24.82;52.28
3102;BME280;1561;42.666;23.392;2023-08-08T09:51:02;95366.06;;;24.80;51.77
3102;BME280;1561;42.666;23.392;2023-08-08T09:53:54;95269.81;;;26.30;46.97
3102;BME280;1561;42.666;23.392;2023-08-08T09:56:38;95345.75;;;27.50;44.57
3102;BME280;1561;42.666;23.392;2023-08-08T09:59:07;95361.56;;;28.48;42.53
3102;BME280;1561;42.666;23.392;2023-08-08T10:01:40;95359.47;;;28.62;41.71
3102;BME280;1561;42.666;23.392;2023-08-08T10:04:11;95338.56;;;27.98;43.52
3102;BME280;1561;42.666;23.392;2023-08-08T10:06:46;95353.34;;;26.56;46.53
3102;BME280;1561;42.666;23.392;2023-08-08T10:09:14;95364.94;;;24.50;51.76
3102;BME280;1561;42.666;23.392;2023-08-08T10:11:42;95350.28;;;24.49;52.21
3102;BME280;1561;42.666;23.392;2023-08-08T10:14:12;95354.13;;;22.75;58.01
3102;BME280;1561;42.666;23.392;2023-08-08T10:16:42;95368.06;;;25.28;53.58
3102;BME280;1561;42.666;23.392;2023-08-08T10:19:09;95367.22;;;25.41;51.78
3102;BME280;1561;42.666;23.392;2023-08-08T10:21:46;95362.56;;;26.23;49.66
3102;BME280;1561;42.666;23.392;2023-08-08T10:24:23;95293.00;;;26.81;47.02
3102;BME280;1561;42.666;23.392;2023-08-08T10:26:53;95355.78;;;26.76;47.72
3102;BME280;1561;42.666;23.392;2023-08-08T10:29:24;95336.94;;;27.44;46.33
3102;BME280;1561;42.666;23.392;2023-08-08T10:31:59;95346.03;;;27.71;45.21
3102;BME280;1561;42.666;23.392;2023-08-08T10:34:36;95345.25;;;27.12;45.78
3102;BME280;1561;42.666;23.392;2023-08-08T10:37:09;95341.47;;;26.18;47.60
3102;BME280;1561;42.666;23.392;2023-08-08T10:39:37;95321.28;;;27.79;44.45
3102;BME280;1561;42.666;23.392;2023-08-08T10:42:18;95321.84;;;26.45;46.49
3102;BME280;1561;42.666;23.392;2023-08-08T10:44:51;95324.78;;;26.73;45.66
3102;BME280;1561;42.666;23.392;2023-08-08T10:47:22;95314.53;;;27.01;45.49
3102;BME280;1561;42.666;23.392;2023-08-08T10:49:57;95314.53;;;27.01;45.67
3102;BME280;1561;42.666;23.392;2023-08-08T10:52:29;95326.94;;;26.76;45.91
3102;BME280;1561;42.666;23.392;2023-08-08T10:54:56;95322.44;;;26.83;46.45
3102;BME280;1561;42.666;23.392;2023-08-08T10:57:27;95313.47;;;26.90;46.12
3102;BME280;1561;42.666;23.392;2023-08-08T10:59:54;95323.97;;;26.54;46.54
3102;BME280;1561;42.666;23.392;2023-08-08T11:02:22;95330.22;;;26.53;47.52
3102;BME280;1561;42.666;23.392;2023-08-08T11:04:50;95338.78;;;25.51;49.59
3102;BME280;1561;42.666;23.392;2023-08-08T11:07:18;95326.59;;;25.38;49.74
3102;BME280;1561;42.666;23.392;2023-08-08T11:09:47;95327.38;;;25.94;48.73
3102;BME280;1561;42.666;23.392;2023-08-08T11:12:16;95326.88;;;26.04;48.98
3102;BME280;1561;42.666;23.392;2023-08-08T11:14:44;95318.22;;;26.03;47.91
3102;BME280;1561;42.666;23.392;2023-08-08T11:17:14;95327.66;;;26.29;47.19
3102;BME280;1561;42.666;23.392;2023-08-08T11:19:41;95319.25;;;24.72;52.08
3102;BME280;1561;42.666;23.392;2023-08-08T11:22:11;95312.81;;;25.74;49.71
3102;BME280;1561;42.666;23.392;2023-08-08T11:24:39;95324.09;;;26.41;47.40
3102;BME280;1561;42.666;23.392;2023-08-08T11:27:07;95286.66;;;26.16;47.56
3102;BME280;1561;42.666;23.392;2023-08-08T11:29:37;95324.63;;;25.21;50.60
3102;BME280;1561;42.666;23.392;2023-08-08T11:32:05;95316.88;;;25.70;49.12
3102;BME280;1561;42.666;23.392;2023-08-08T11:34:34;95316.50;;;25.42;49.87
3102;BME280;1561;42.666;23.392;2023-08-08T11:37:02;95315.69;;;25.66;49.71
3102;BME280;1561;42.666;23.392;2023-08-08T11:39:30;95308.91;;;25.58;50.72
3102;BME280;1561;42.666;23.392;2023-08-08T11:41:59;95304.47;;;24.97;51.81
3102;BME280;1561;42.666;23.392;2023-08-08T11:44:31;95319.22;;;25.78;50.41
3102;BME280;1561;42.666;23.392;2023-08-08T11:47:01;95317.53;;;25.65;49.70
3102;BME280;1561;42.666;23.392;2023-08-08T11:49:28;95322.44;;;24.17;56.10
3102;BME280;1561;42.666;23.392;2023-08-08T11:51:58;95315.13;;;24.45;55.32
3102;BME280;1561;42.666;23.392;2023-08-08T11:54:30;95232.34;;;24.45;52.19
3102;BME280;1561;42.666;23.392;2023-08-08T11:57:01;95302.53;;;24.03;57.05
3102;BME280;1561;42.666;23.392;2023-08-08T11:59:35;95310.63;;;24.71;55.31
3102;BME280;1561;42.666;23.392;2023-08-08T12:02:05;95283.47;;;24.79;54.41
3102;BME280;1561;42.666;23.392;2023-08-08T12:04:33;95289.81;;;25.33;53.39
3102;BME280;1561;42.666;23.392;2023-08-08T12:07:01;95264.41;;;25.03;53.23
3102;BME280;1561;42.666;23.392;2023-08-08T12:09:41;95283.72;;;24.64;53.52
3102;BME280;1561;42.666;23.392;2023-08-08T12:12:09;95297.16;;;24.68;54.11
3102;BME280;1561;42.666;23.392;2023-08-08T12:14:50;95289.31;;;24.74;53.89
3102;BME280;1561;42.666;23.392;2023-08-08T12:17:17;95291.50;;;25.15;51.72
3102;BME280;1561;42.666;23.392;2023-08-08T12:19:46;95293.69;;;24.87;53.42
3102;BME280;1561;42.666;23.392;2023-08-08T12:22:15;95288.09;;;25.45;51.46
3102;BME280;1561;42.666;23.392;2023-08-08T12:24:45;95280.38;;;25.99;49.41
3102;BME280;1561;42.666;23.392;2023-08-08T12:27:16;95272.00;;;25.11;51.60
3102;BME280;1561;42.666;23.392;2023-08-08T12:29:48;95273.34;;;25.20;52.33
3102;BME280;1561;42.666;23.392;2023-08-08T12:32:19;95276.25;;;25.05;52.08
3102;BME280;1561;42.666;23.392;2023-08-08T12:34:50;95283.56;;;25.59;50.16
3102;BME280;1561;42.666;23.392;2023-08-08T12:37:17;95282.75;;;25.34;51.05
3102;BME280;1561;42.666;23.392;2023-08-08T12:39:44;95284.16;;;24.99;51.71
3102;BME280;1561;42.666;23.392;2023-08-08T12:42:14;95263.09;;;25.18;51.12
3102;BME280;1561;42.666;23.392;2023-08-08T12:44:43;95254.41;;;25.80;49.68
3102;BME280;1561;42.666;23.392;2023-08-08T12:47:13;95259.97;;;25.65;50.12
3102;BME280;1561;42.666;23.392;2023-08-08T12:49:40;95254.53;;;25.42;50.27
3102;BME280;1561;42.666;23.392;2023-08-08T12:52:12;95275.56;;;24.92;52.44
3102;BME280;1561;42.666;23.392;2023-08-08T12:54:40;95259.75;;;25.11;50.92
3102;BME280;1561;42.666;23.392;2023-08-08T12:57:12;95262.31;;;25.18;50.03
3102;BME280;1561;42.666;23.392;2023-08-08T12:59:45;95264.69;;;25.50;49.98
3102;BME280;1561;42.666;23.392;2023-08-08T13:02:14;95270.66;;;25.02;51.55
3102;BME280;1561;42.666;23.392;2023-08-08T13:04:48;95265.50;;;24.89;52.23
3102;BME280;1561;42.666;23.392;2023-08-08T13:07:29;95263.78;;;24.76;52.33
3102;BME280;1561;42.666;23.392;2023-08-08T13:09:58;95270.53;;;24.90;51.45
3102;BME280;1561;42.666;23.392;2023-08-08T13:12:26;95253.00;;;25.22;51.08
3102;BME280;1561;42.666;23.392;2023-08-08T13:14:53;95262.31;;;25.73;49.92
3102;BME280;1561;42.666;23.392;2023-08-08T13:17:25;95240.06;;;25.40;50.25
3102;BME280;1561;42.666;23.392;2023-08-08T13:19:54;95194.97;;;24.45;51.32
3102;BME280;1561;42.666;23.392;2023-08-08T13:22:34;95254.63;;;25.23;50.21
3102;BME280;1561;42.666;23.392;2023-08-08T13:25:04;95249.19;;;25.24;51.13
3102;BME280;1561;42.666;23.392;2023-08-08T13:27:32;95247.78;;;25.22;50.82